sensor_id;sensor_type;location;lat;lon;timestamp;P1;durP1;ratioP1;P2;durP2;ratioP2
4961;SDS011;2496;52.468;13.342;2022-10-31T00:00:13;34.47;;;16.93;;
4961;SDS011;2496;52.468;13.342;2022-10-31T00:02:41;25.20;;;17.50;;
4961;SDS011;2496;52.468;13.342;2022-10-31T00:05:10;39.20;;;17.57;;
4961;SDS011;2496;52.468;13.342;2022-10-31T00:07:37;34.80;;;16.60;;
4961;SDS011;2496;52.468;13.342;2022-10-31T00:10:04;30.23;;;17.60;;
4961;SDS011;2496;52.468;13.342;2022-10-31T00:12:32;25.60;;;15.50;;
4961;SDS011;2496;52.468;13.342;2022-10-31T00:14:59;23.43;;;15.90;;
4961;SDS011;2496;52.468;13.342;2022-10-31T00:17:26;24.07;;;15.40;;
4961;SDS011;2496;52.468;13.342;2022-10-31T00:19:54;32.97;;;15.00;;
4961;SDS011;2496;52.468;13.342;2022-10-31T00:22:23;25.20;;;15.03;;
4961;SDS011;2496;52.468;13.342;2022-10-31T00:24:50;23.70;;;16.10;;
4961;SDS011;2496;52.468;13.342;2022-10-31T00:27:17;23.00;;;14.60;;
4961;SDS011;2496;52.468;13.342;2022-10-31T00:29:45;29.70;;;15.63;;
4961;SDS011;2496;52.468;13.342;2022-10-31T00:32:11;26.53;;;15.80;;
4961;SDS011;2496;52.468;13.342;2022-10-31T00:34:38;27.33;;;15.80;;
4961;SDS011;2496;52.468;13.342;2022-10-31T00:37:05;29.73;;;18.07;;
4961;SDS011;2496;52.468;13.342;2022-10-31T00:39:33;23.07;;;15.90;;
4961;SDS011;2496;52.468;13.342;2022-10-31T00:42:00;32.17;;;16.40;;
4961;SDS011;2496;52.468;13.342;2022-10-31T00:44:27;20.17;;;14.80;;
4961;SDS011;2496;52.468;13.342;2022-10-31T00:46:54;26.27;;;16.20;;
4961;SDS011;2496;52.468;13.342;2022-10-31T00:49:21;29.77;;;16.63;;
4961;SDS011;2496;52.468;13.342;2022-10-31T00:51:48;26.73;;;14.73;;
4961;SDS011;2496;52.468;13.342;2022-10-31T00:54:15;23.17;;;15.43;;
4961;SDS011;2496;52.468;13.342;2022-10-31T00:56:43;20.33;;;15.40;;
4961;SDS011;2496;52.468;13.342;2022-10-31T00:59:10;25.10;;;14.83;;
4961;SDS011;2496;52.468;13.342;2022-10-31T01:01:36;23.63;;;15.83;;
4961;SDS011;2496;52.468;13.342;2022-10-31T01:04:03;27.23;;;16.23;;
4961;SDS011;2496;52.468;13.342;2022-10-31T01:06:30;23.80;;;14.17;;
4961;SDS011;2496;52.468;13.342;2022-10-31T01:08:57;28.43;;;15.60;;
4961;SDS011;2496;52.468;13.342;2022-10-31T01:11:24;19.73;;;13.87;;
4961;SDS011;2496;52.468;13.342;2022-10-31T01:13:52;26.90;;;14.83;;
4961;SDS011;2496;52.468;13.342;2022-10-31T01:16:21;24.00;;;15.43;;
4961;SDS011;2496;52.468;13.342;2022-10-31T01:18:49;19.90;;;14.40;;
4961;SDS011;2496;52.468;13.342;2022-10-31T01:21:17;26.60;;;15.90;;
4961;SDS011;2496;52.468;13.342;2022-10-31T01:23:45;30.30;;;15.57;;
4961;SDS011;2496;52.468;13.342;2022-10-31T01:26:13;26.87;;;15.03;;
4961;SDS011;2496;52.468;13.342;2022-10-31T01:28:44;20.37;;;14.30;;
4961;SDS011;2496;52.468;13.342;2022-10-31T01:31:13;22.93;;;14.90;;
4961;SDS011;2496;52.468;13.342;2022-10-31T01:33:41;21.43;;;14.03;;
4961;SDS011;2496;52.468;13.342;2022-10-31T01:36:16;25.87;;;15.17;;
4961;SDS011;2496;52.468;13.342;2022-10-31T01:38:44;30.80;;;15.57;;
4961;SDS011;2496;52.468;13.342;2022-10-31T01:41:12;22.20;;;14.10;;
4961;SDS011;2496;52.468;13.342;2022-10-31T01:43:44;29.00;;;15.23;;
4961;SDS011;2496;52.468;13.342;2022-10-31T01:46:14;33.63;;;15.37;;
4961;SDS011;2496;52.468;13.342;2022-10-31T01:48:44;28.53;;;15.50;;
4961;SDS011;2496;52.468;13.342;2022-10-31T01:51:12;20.00;;;14.97;;
4961;SDS011;2496;52.468;13.342;2022-10-31T01:53:41;27.97;;;14.93;;
4961;SDS011;2496;52.468;13.342;2022-10-31T01:56:09;23.23;;;14.00;;
4961;SDS011;2496;52.468;13.342;2022-10-31T01:58:37;18.00;;;14.20;;
4961;SDS011;2496;52.468;13.342;2022-10-31T02:01:05;24.97;;;14.33;;
4961;SDS011;2496;52.468;13.342;2022-10-31T02:03:33;25.50;;;15.07;;
4961;SDS011;2496;52.468;13.342;2022-10-31T02:06:00;18.67;;;13.83;;
4961;SDS011;2496;52.468;13.342;2022-10-31T02:08:30;26.40;;;13.70;;
4961;SDS011;2496;52.468;13.342;2022-10-31T02:11:00;24.53;;;14.87;;
4961;SDS011;2496;52.468;13.342;2022-10-31T02:13:27;25.73;;;14.13;;
4961;SDS011;2496;52.468;13.342;2022-10-31T02:15:55;23.63;;;14.47;;
4961;SDS011;2496;52.468;13.342;2022-10-31T02:18:24;24.97;;;14.80;;
4961;SDS011;2496;52.468;13.342;2022-10-31T02:21:01;25.73;;;13.80;;
4961;SDS011;2496;52.468;13.342;2022-10-31T02:26:31;22.60;;;14.13;;
4961;SDS011;2496;52.468;13.342;2022-10-31T02:29:16;24.17;;;15.00;;
4961;SDS011;2496;52.468;13.342;2022-10-31T02:32:12;26.87;;;14.03;;
4961;SDS011;2496;52.468;13.342;2022-10-31T02:34:44;23.97;;;15.40;;
4961;SDS011;2496;52.468;13.342;2022-10-31T02:37:19;20.50;;;13.70;;
4961;SDS011;2496;52.468;13.342;2022-10-31T02:39:54;20.30;;;13.60;;
4961;SDS011;2496;52.468;13.342;2022-10-31T02:42:31;31.10;;;17.27;;
4961;SDS011;2496;52.468;13.342;2022-10-31T02:45:06;22.67;;;14.77;;
4961;SDS011;2496;52.468;13.342;2022-10-31T02:47:39;25.60;;;16.30;;
4961;SDS011;2496;52.468;13.342;2022-10-31T02:50:09;21.67;;;12.40;;
4961;SDS011;2496;52.468;13.342;2022-10-31T02:52:38;27.57;;;14.60;;
4961;SDS011;2496;52.468;13.342;2022-10-31T02:55:09;22.00;;;13.83;;
4961;SDS011;2496;52.468;13.342;2022-10-31T02:57:37;22.70;;;14.97;;
4961;SDS011;2496;52.468;13.342;2022-10-31T03:00:08;25.80;;;13.60;;
4961;SDS011;2496;52.468;13.342;2022-10-31T03:02:49;22.53;;;14.23;;
4961;SDS011;2496;52.468;13.342;2022-10-31T03:05:26;24.83;;;14.60;;
4961;SDS011;2496;52.468;13.342;2022-10-31T03:08:06;23.40;;;13.83;;
4961;SDS011;2496;52.468;13.342;2022-10-31T03:10:40;25.10;;;14.57;;
4961;SDS011;2496;52.468;13.342;2022-10-31T03:13:12;21.93;;;13.43;;
4961;SDS011;2496;52.468;13.342;2022-10-31T03:15:49;27.13;;;13.57;;
4961;SDS011;2496;52.468;13.342;2022-10-31T03:18:22;19.07;;;12.70;;
4961;SDS011;2496;52.468;13.342;2022-10-31T03:20:55;23.10;;;13.80;;
4961;SDS011;2496;52.468;13.342;2022-10-31T03:23:25;19.00;;;12.60;;
4961;SDS011;2496;52.468;13.342;2022-10-31T03:25:54;26.40;;;13.57;;
4961;SDS011;2496;52.468;13.342;2022-10-31T03:28:22;23.20;;;13.27;;
4961;SDS011;2496;52.468;13.342;2022-10-31T03:30:54;21.23;;;12.77;;
4961;SDS011;2496;52.468;13.342;2022-10-31T03:33:24;18.83;;;13.43;;
4961;SDS011;2496;52.468;13.342;2022-10-31T03:35:54;22.57;;;12.70;;
4961;SDS011;2496;52.468;13.342;2022-10-31T03:38:23;24.20;;;13.27;;
4961;SDS011;2496;52.468;13.342;2022-10-31T03:40:51;25.40;;;13.77;;
4961;SDS011;2496;52.468;13.342;2022-10-31T03:43:22;21.90;;;12.53;;
4961;SDS011;2496;52.468;13.342;2022-10-31T03:45:51;22.90;;;13.87;;
4961;SDS011;2496;52.468;13.342;2022-10-31T03:48:18;19.43;;;12.67;;
4961;SDS011;2496;52.468;13.342;2022-10-31T03:50:49;20.47;;;11.97;;
4961;SDS011;2496;52.468;13.342;2022-10-31T03:53:24;27.37;;;13.87;;
4961;SDS011;2496;52.468;13.342;2022-10-31T03:55:56;15.60;;;12.67;;
4961;SDS011;2496;52.468;13.342;2022-10-31T03:58:27;23.43;;;13.27;;
4961;SDS011;2496;52.468;13.342;2022-10-31T04:01:02;20.70;;;13.13;;
4961;SDS011;2496;52.468;13.342;2022-10-31T04:03:32;20.07;;;11.67;;
4961;SDS011;2496;52.468;13.342;2022-10-31T04:06:05;23.67;;;13.00;;
4961;SDS011;2496;52.468;13.342;2022-10-31T04:08:38;25.60;;;12.67;;
4961;SDS011;2496;52.468;13.342;2022-10-31T04:11:10;23.23;;;12.33;;
4961;SDS011;2496;52.468;13.342;2022-10-31T04:13:39;30.63;;;11.90;;
4961;SDS011;2496;52.468;13.342;2022-10-31T04:16:08;22.97;;;12.73;;
4961;SDS011;2496;52.468;13.342;2022-10-31T04:18:36;22.63;;;13.93;;
4961;SDS011;2496;52.468;13.342;2022-10-31T04:21:05;23.27;;;13.90;;
4961;SDS011;2496;52.468;13.342;2022-10-31T04:23:33;17.90;;;12.50;;
4961;SDS011;2496;52.468;13.342;2022-10-31T04:26:02;21.00;;;12.20;;
4961;SDS011;2496;52.468;13.342;2022-10-31T04:28:29;22.10;;;12.00;;
4961;SDS011;2496;52.468;13.342;2022-10-31T04:30:57;23.00;;;12.97;;
4961;SDS011;2496;52.468;13.342;2022-10-31T04:33:24;22.33;;;12.90;;
4961;SDS011;2496;52.468;13.342;2022-10-31T04:35:51;24.50;;;13.20;;
4961;SDS011;2496;52.468;13.342;2022-10-31T04:38:19;23.80;;;12.77;;
4961;SDS011;2496;52.468;13.342;2022-10-31T04:40:46;24.73;;;14.97;;
4961;SDS011;2496;52.468;13.342;2022-10-31T04:43:13;20.47;;;13.23;;
4961;SDS011;2496;52.468;13.342;2022-10-31T04:45:40;20.47;;;12.83;;
4961;SDS011;2496;52.468;13.342;2022-10-31T04:48:07;14.93;;;12.07;;
4961;SDS011;2496;52.468;13.342;2022-10-31T04:50:33;26.17;;;13.07;;
4961;SDS011;2496;52.468;13.342;2022-10-31T04:53:00;18.03;;;12.27;;
4961;SDS011;2496;52.468;13.342;2022-10-31T04:55:28;16.10;;;11.90;;
4961;SDS011;2496;52.468;13.342;2022-10-31T04:57:56;23.10;;;13.37;;
4961;SDS011;2496;52.468;13.342;2022-10-31T05:00:23;24.27;;;13.90;;
4961;SDS011;2496;52.468;13.342;2022-10-31T05:02:50;22.47;;;13.83;;
4961;SDS011;2496;52.468;13.342;2022-10-31T05:05:19;23.60;;;14.73;;
4961;SDS011;2496;52.468;13.342;2022-10-31T05:07:48;23.67;;;13.13;;
4961;SDS011;2496;52.468;13.342;2022-10-31T05:10:16;21.77;;;13.03;;
4961;SDS011;2496;52.468;13.342;2022-10-31T05:12:49;20.87;;;12.17;;
4961;SDS011;2496;52.468;13.342;2022-10-31T05:15:17;18.20;;;12.10;;
4961;SDS011;2496;52.468;13.342;2022-10-31T05:17:45;21.50;;;11.73;;
4961;SDS011;2496;52.468;13.342;2022-10-31T05:20:14;19.03;;;11.97;;
4961;SDS011;2496;52.468;13.342;2022-10-31T05:22:42;38.53;;;20.30;;
4961;SDS011;2496;52.468;13.342;2022-10-31T05:25:10;23.17;;;15.00;;
4961;SDS011;2496;52.468;13.342;2022-10-31T05:27:38;22.43;;;13.40;;
4961;SDS011;2496;52.468;13.342;2022-10-31T05:30:08;24.73;;;11.83;;
4961;SDS011;2496;52.468;13.342;2022-10-31T05:32:36;19.00;;;11.67;;
4961;SDS011;2496;52.468;13.342;2022-10-31T05:35:04;18.13;;;12.70;;
4961;SDS011;2496;52.468;13.342;2022-10-31T05:37:33;20.50;;;13.67;;
4961;SDS011;2496;52.468;13.342;2022-10-31T05:40:00;21.70;;;13.00;;
4961;SDS011;2496;52.468;13.342;2022-10-31T05:42:27;21.17;;;13.47;;
4961;SDS011;2496;52.468;13.342;2022-10-31T05:44:53;23.60;;;14.30;;
4961;SDS011;2496;52.468;13.342;2022-10-31T05:47:22;21.17;;;13.17;;
4961;SDS011;2496;52.468;13.342;2022-10-31T05:49:49;24.10;;;12.30;;
4961;SDS011;2496;52.468;13.342;2022-10-31T05:52:16;17.93;;;11.93;;
4961;SDS011;2496;52.468;13.342;2022-10-31T05:54:43;23.87;;;12.13;;
4961;SDS011;2496;52.468;13.342;2022-10-31T05:57:10;20.40;;;12.63;;
4961;SDS011;2496;52.468;13.342;2022-10-31T05:59:37;31.37;;;13.07;;
4961;SDS011;2496;52.468;13.342;2022-10-31T06:02:04;25.90;;;13.40;;
4961;SDS011;2496;52.468;13.342;2022-10-31T06:04:32;31.27;;;15.83;;
4961;SDS011;2496;52.468;13.342;2022-10-31T06:06:59;23.93;;;13.77;;
4961;SDS011;2496;52.468;13.342;2022-10-31T06:09:26;29.63;;;14.00;;
4961;SDS011;2496;52.468;13.342;2022-10-31T06:11:53;18.77;;;12.63;;
4961;SDS011;2496;52.468;13.342;2022-10-31T06:14:20;25.87;;;13.60;;
4961;SDS011;2496;52.468;13.342;2022-10-31T06:16:46;19.97;;;12.93;;
4961;SDS011;2496;52.468;13.342;2022-10-31T06:19:13;23.13;;;12.47;;
4961;SDS011;2496;52.468;13.342;2022-10-31T06:21:42;26.10;;;13.83;;
4961;SDS011;2496;52.468;13.342;2022-10-31T06:24:08;31.27;;;16.77;;
4961;SDS011;2496;52.468;13.342;2022-10-31T06:26:35;29.53;;;16.90;;
4961;SDS011;2496;52.468;13.342;2022-10-31T06:29:02;19.23;;;14.30;;
4961;SDS011;2496;52.468;13.342;2022-10-31T06:31:29;18.93;;;12.53;;
4961;SDS011;2496;52.468;13.342;2022-10-31T06:33:56;22.10;;;12.50;;
4961;SDS011;2496;52.468;13.342;2022-10-31T06:36:23;24.63;;;12.43;;
4961;SDS011;2496;52.468;13.342;2022-10-31T06:38:51;20.40;;;12.60;;
4961;SDS011;2496;52.468;13.342;2022-10-31T06:41:19;28.97;;;13.17;;
4961;SDS011;2496;52.468;13.342;2022-10-31T06:43:46;28.53;;;13.27;;
4961;SDS011;2496;52.468;13.342;2022-10-31T06:46:13;22.33;;;11.73;;
4961;SDS011;2496;52.468;13.342;2022-10-31T06:48:40;21.37;;;13.00;;
4961;SDS011;2496;52.468;13.342;2022-10-31T06:51:07;31.33;;;12.77;;
4961;SDS011;2496;52.468;13.342;2022-10-31T06:53:34;21.37;;;12.40;;
4961;SDS011;2496;52.468;13.342;2022-10-31T06:56:03;25.93;;;11.47;;
4961;SDS011;2496;52.468;13.342;2022-10-31T06:58:30;24.50;;;12.40;;
4961;SDS011;2496;52.468;13.342;2022-10-31T07:00:58;21.60;;;12.17;;
4961;SDS011;2496;52.468;13.342;2022-10-31T07:03:25;20.37;;;12.30;;
4961;SDS011;2496;52.468;13.342;2022-10-31T07:05:54;27.33;;;13.30;;
4961;SDS011;2496;52.468;13.342;2022-10-31T07:08:22;29.33;;;12.70;;
4961;SDS011;2496;52.468;13.342;2022-10-31T07:10:51;20.90;;;12.30;;
4961;SDS011;2496;52.468;13.342;2022-10-31T07:13:20;18.90;;;12.80;;
4961;SDS011;2496;52.468;13.342;2022-10-31T07:15:50;22.87;;;14.70;;
4961;SDS011;2496;52.468;13.342;2022-10-31T07:18:18;25.47;;;11.90;;
4961;SDS011;2496;52.468;13.342;2022-10-31T07:20:46;22.00;;;13.20;;
4961;SDS011;2496;52.468;13.342;2022-10-31T07:23:13;21.53;;;13.33;;
4961;SDS011;2496;52.468;13.342;2022-10-31T07:25:40;18.83;;;13.07;;
4961;SDS011;2496;52.468;13.342;2022-10-31T07:28:08;24.13;;;13.60;;
4961;SDS011;2496;52.468;13.342;2022-10-31T07:30:36;27.03;;;13.80;;
4961;SDS011;2496;52.468;13.342;2022-10-31T07:33:04;23.63;;;13.27;;
4961;SDS011;2496;52.468;13.342;2022-10-31T07:35:31;28.07;;;14.23;;
4961;SDS011;2496;52.468;13.342;2022-10-31T07:38:06;17.73;;;13.30;;
4961;SDS011;2496;52.468;13.342;2022-10-31T07:40:33;32.17;;;14.07;;
4961;SDS011;2496;52.468;13.342;2022-10-31T07:43:00;24.20;;;14.40;;
4961;SDS011;2496;52.468;13.342;2022-10-31T07:45:27;26.97;;;14.17;;
4961;SDS011;2496;52.468;13.342;2022-10-31T07:47:55;21.03;;;14.77;;
4961;SDS011;2496;52.468;13.342;2022-10-31T07:50:23;38.83;;;14.47;;
4961;SDS011;2496;52.468;13.342;2022-10-31T07:52:57;32.97;;;15.63;;
4961;SDS011;2496;52.468;13.342;2022-10-31T07:55:25;29.17;;;14.57;;
4961;SDS011;2496;52.468;13.342;2022-10-31T07:57:55;21.77;;;13.83;;
4961;SDS011;2496;52.468;13.342;2022-10-31T08:00:23;33.47;;;14.40;;
4961;SDS011;2496;52.468;13.342;2022-10-31T08:02:57;35.43;;;16.50;;
4961;SDS011;2496;52.468;13.342;2022-10-31T08:05:24;30.03;;;17.60;;
4961;SDS011;2496;52.468;13.342;2022-10-31T08:07:51;21.80;;;12.50;;
4961;SDS011;2496;52.468;13.342;2022-10-31T08:10:18;28.27;;;14.90;;
4961;SDS011;2496;52.468;13.342;2022-10-31T08:12:45;29.17;;;16.20;;
4961;SDS011;2496;52.468;13.342;2022-10-31T08:15:15;34.13;;;17.23;;
4961;SDS011;2496;52.468;13.342;2022-10-31T08:17:45;36.83;;;17.60;;
4961;SDS011;2496;52.468;13.342;2022-10-31T08:20:17;34.80;;;17.57;;
4961;SDS011;2496;52.468;13.342;2022-10-31T08:22:52;30.00;;;17.90;;
4961;SDS011;2496;52.468;13.342;2022-10-31T08:25:20;35.53;;;18.37;;
4961;SDS011;2496;52.468;13.342;2022-10-31T08:27:50;34.23;;;18.53;;
4961;SDS011;2496;52.468;13.342;2022-10-31T08:30:18;54.77;;;29.93;;
4961;SDS011;2496;52.468;13.342;2022-10-31T08:32:46;30.40;;;18.23;;
4961;SDS011;2496;52.468;13.342;2022-10-31T08:35:24;42.77;;;18.77;;
4961;SDS011;2496;52.468;13.342;2022-10-31T08:37:51;39.80;;;18.53;;
4961;SDS011;2496;52.468;13.342;2022-10-31T08:40:19;37.67;;;19.10;;
4961;SDS011;2496;52.468;13.342;2022-10-31T08:42:46;34.60;;;19.60;;
4961;SDS011;2496;52.468;13.342;2022-10-31T08:45:13;33.90;;;21.43;;
4961;SDS011;2496;52.468;13.342;2022-10-31T08:47:40;31.70;;;20.23;;
4961;SDS011;2496;52.468;13.342;2022-10-31T08:50:07;38.97;;;21.90;;
4961;SDS011;2496;52.468;13.342;2022-10-31T08:52:36;33.37;;;19.73;;
4961;SDS011;2496;52.468;13.342;2022-10-31T08:55:03;41.57;;;21.33;;
4961;SDS011;2496;52.468;13.342;2022-10-31T08:57:30;39.30;;;19.90;;
4961;SDS011;2496;52.468;13.342;2022-10-31T08:59:57;31.27;;;20.27;;
4961;SDS011;2496;52.468;13.342;2022-10-31T09:02:24;35.20;;;20.10;;
4961;SDS011;2496;52.468;13.342;2022-10-31T09:04:51;44.03;;;20.73;;
4961;SDS011;2496;52.468;13.342;2022-10-31T09:07:18;41.77;;;21.20;;
4961;SDS011;2496;52.468;13.342;2022-10-31T09:09:46;33.17;;;19.93;;
4961;SDS011;2496;52.468;13.342;2022-10-31T09:12:13;32.90;;;21.27;;
4961;SDS011;2496;52.468;13.342;2022-10-31T09:14:40;37.20;;;21.90;;
4961;SDS011;2496;52.468;13.342;2022-10-31T09:17:06;38.00;;;20.30;;
4961;SDS011;2496;52.468;13.342;2022-10-31T09:19:33;33.40;;;21.50;;
4961;SDS011;2496;52.468;13.342;2022-10-31T09:22:01;31.37;;;20.07;;
4961;SDS011;2496;52.468;13.342;2022-10-31T09:24:28;39.93;;;22.57;;
4961;SDS011;2496;52.468;13.342;2022-10-31T09:26:56;45.03;;;20.60;;
4961;SDS011;2496;52.468;13.342;2022-10-31T09:29:24;39.57;;;20.07;;
4961;SDS011;2496;52.468;13.342;2022-10-31T09:31:51;36.00;;;21.40;;
4961;SDS011;2496;52.468;13.342;2022-10-31T09:34:18;49.47;;;21.40;;
4961;SDS011;2496;52.468;13.342;2022-10-31T09:36:45;38.47;;;21.80;;
4961;SDS011;2496;52.468;13.342;2022-10-31T09:39:12;44.03;;;21.53;;
4961;SDS011;2496;52.468;13.342;2022-10-31T09:41:46;33.10;;;21.03;;
4961;SDS011;2496;52.468;13.342;2022-10-31T09:44:33;42.53;;;21.00;;
4961;SDS011;2496;52.468;13.342;2022-10-31T09:47:13;38.67;;;20.20;;
4961;SDS011;2496;52.468;13.342;2022-10-31T09:52:40;39.70;;;21.10;;
4961;SDS011;2496;52.468;13.342;2022-10-31T09:55:14;34.63;;;20.20;;
4961;SDS011;2496;52.468;13.342;2022-10-31T09:57:45;41.53;;;21.03;;
4961;SDS011;2496;52.468;13.342;2022-10-31T10:00:16;38.43;;;21.20;;
4961;SDS011;2496;52.468;13.342;2022-10-31T10:02:46;34.73;;;22.80;;
4961;SDS011;2496;52.468;13.342;2022-10-31T10:05:18;45.73;;;22.47;;
4961;SDS011;2496;52.468;13.342;2022-10-31T10:07:49;48.53;;;21.33;;
4961;SDS011;2496;52.468;13.342;2022-10-31T10:10:27;37.27;;;22.20;;
4961;SDS011;2496;52.468;13.342;2022-10-31T10:13:05;31.13;;;20.20;;
4961;SDS011;2496;52.468;13.342;2022-10-31T10:15:54;36.50;;;25.30;;
4961;SDS011;2496;52.468;13.342;2022-10-31T10:18:37;41.60;;;21.67;;
4961;SDS011;2496;52.468;13.342;2022-10-31T10:21:15;53.83;;;24.00;;
4961;SDS011;2496;52.468;13.342;2022-10-31T10:23:54;49.90;;;23.03;;
4961;SDS011;2496;52.468;13.342;2022-10-31T10:26:30;37.50;;;21.70;;
4961;SDS011;2496;52.468;13.342;2022-10-31T10:29:03;38.90;;;23.30;;
4961;SDS011;2496;52.468;13.342;2022-10-31T10:31:42;38.17;;;21.20;;
4961;SDS011;2496;52.468;13.342;2022-10-31T10:34:12;39.80;;;22.77;;
4961;SDS011;2496;52.468;13.342;2022-10-31T10:36:44;39.97;;;23.00;;
4961;SDS011;2496;52.468;13.342;2022-10-31T10:39:14;45.23;;;22.93;;
4961;SDS011;2496;52.468;13.342;2022-10-31T10:41:45;50.63;;;23.70;;
4961;SDS011;2496;52.468;13.342;2022-10-31T10:44:28;41.73;;;23.07;;
4961;SDS011;2496;52.468;13.342;2022-10-31T10:47:14;39.63;;;23.30;;
4961;SDS011;2496;52.468;13.342;2022-10-31T10:49:58;42.43;;;24.83;;
4961;SDS011;2496;52.468;13.342;2022-10-31T10:52:29;42.67;;;24.70;;
4961;SDS011;2496;52.468;13.342;2022-10-31T10:55:06;52.90;;;25.17;;
4961;SDS011;2496;52.468;13.342;2022-10-31T10:57:47;38.80;;;24.57;;
4961;SDS011;2496;52.468;13.342;2022-10-31T11:00:22;37.33;;;21.40;;
4961;SDS011;2496;52.468;13.342;2022-10-31T11:02:51;48.07;;;23.53;;
4961;SDS011;2496;52.468;13.342;2022-10-31T11:05:22;37.80;;;21.77;;
4961;SDS011;2496;52.468;13.342;2022-10-31T11:07:52;37.80;;;23.90;;
4961;SDS011;2496;52.468;13.342;2022-10-31T11:10:18;42.57;;;23.00;;
4961;SDS011;2496;52.468;13.342;2022-10-31T11:12:56;43.33;;;25.00;;
4961;SDS011;2496;52.468;13.342;2022-10-31T11:15:49;38.27;;;22.53;;
4961;SDS011;2496;52.468;13.342;2022-10-31T11:18:22;40.00;;;23.23;;
4961;SDS011;2496;52.468;13.342;2022-10-31T11:20:51;41.13;;;22.40;;
4961;SDS011;2496;52.468;13.342;2022-10-31T11:23:20;44.10;;;24.30;;
4961;SDS011;2496;52.468;13.342;2022-10-31T11:25:49;44.70;;;24.20;;
4961;SDS011;2496;52.468;13.342;2022-10-31T11:28:20;44.50;;;23.80;;
4961;SDS011;2496;52.468;13.342;2022-10-31T11:30:47;49.33;;;24.33;;
4961;SDS011;2496;52.468;13.342;2022-10-31T11:33:18;45.60;;;22.70;;
4961;SDS011;2496;52.468;13.342;2022-10-31T11:35:49;39.00;;;23.77;;
4961;SDS011;2496;52.468;13.342;2022-10-31T11:38:18;46.00;;;24.53;;
4961;SDS011;2496;52.468;13.342;2022-10-31T11:40:56;40.77;;;23.33;;
4961;SDS011;2496;52.468;13.342;2022-10-31T11:43:26;46.70;;;26.10;;
4961;SDS011;2496;52.468;13.342;2022-10-31T11:45:53;54.27;;;23.57;;
4961;SDS011;2496;52.468;13.342;2022-10-31T11:48:22;38.80;;;23.17;;
4961;SDS011;2496;52.468;13.342;2022-10-31T11:50:51;41.40;;;24.77;;
4961;SDS011;2496;52.468;13.342;2022-10-31T11:53:22;35.37;;;23.57;;
4961;SDS011;2496;52.468;13.342;2022-10-31T11:56:00;37.17;;;22.67;;
4961;SDS011;2496;52.468;13.342;2022-10-31T11:58:30;39.00;;;21.73;;
4961;SDS011;2496;52.468;13.342;2022-10-31T12:00:57;41.90;;;22.43;;
4961;SDS011;2496;52.468;13.342;2022-10-31T12:03:41;33.60;;;20.67;;
4961;SDS011;2496;52.468;13.342;2022-10-31T12:06:16;35.53;;;21.47;;
4961;SDS011;2496;52.468;13.342;2022-10-31T12:08:47;43.73;;;21.83;;
4961;SDS011;2496;52.468;13.342;2022-10-31T12:11:22;46.63;;;26.27;;
4961;SDS011;2496;52.468;13.342;2022-10-31T12:14:14;41.63;;;23.20;;
4961;SDS011;2496;52.468;13.342;2022-10-31T12:16:52;57.77;;;30.00;;
4961;SDS011;2496;52.468;13.342;2022-10-31T12:19:27;37.13;;;21.93;;
4961;SDS011;2496;52.468;13.342;2022-10-31T12:22:06;37.83;;;22.27;;
4961;SDS011;2496;52.468;13.342;2022-10-31T12:24:48;33.63;;;22.50;;
4961;SDS011;2496;52.468;13.342;2022-10-31T12:27:27;40.23;;;23.23;;
4961;SDS011;2496;52.468;13.342;2022-10-31T12:30:13;33.93;;;23.10;;
4961;SDS011;2496;52.468;13.342;2022-10-31T12:32:56;35.97;;;21.73;;
4961;SDS011;2496;52.468;13.342;2022-10-31T12:35:44;49.43;;;22.00;;
4961;SDS011;2496;52.468;13.342;2022-10-31T12:38:24;46.17;;;22.40;;
4961;SDS011;2496;52.468;13.342;2022-10-31T12:43:51;50.83;;;23.50;;
4961;SDS011;2496;52.468;13.342;2022-10-31T12:46:30;39.57;;;24.60;;
4961;SDS011;2496;52.468;13.342;2022-10-31T12:49:14;38.57;;;23.93;;
4961;SDS011;2496;52.468;13.342;2022-10-31T12:51:56;42.13;;;22.87;;
4961;SDS011;2496;52.468;13.342;2022-10-31T12:54:43;48.97;;;24.37;;
4961;SDS011;2496;52.468;13.342;2022-10-31T12:57:22;35.90;;;22.87;;
4961;SDS011;2496;52.468;13.342;2022-10-31T12:59:56;45.43;;;25.00;;
4961;SDS011;2496;52.468;13.342;2022-10-31T13:02:29;38.33;;;22.33;;
4961;SDS011;2496;52.468;13.342;2022-10-31T13:05:02;42.67;;;22.77;;
4961;SDS011;2496;52.468;13.342;2022-10-31T13:07:34;39.60;;;22.97;;
4961;SDS011;2496;52.468;13.342;2022-10-31T13:10:05;51.00;;;23.53;;
4961;SDS011;2496;52.468;13.342;2022-10-31T13:12:36;50.80;;;24.13;;
4961;SDS011;2496;52.468;13.342;2022-10-31T13:15:05;39.90;;;23.03;;
4961;SDS011;2496;52.468;13.342;2022-10-31T13:17:42;43.37;;;25.10;;
4961;SDS011;2496;52.468;13.342;2022-10-31T13:20:15;44.53;;;25.13;;
4961;SDS011;2496;52.468;13.342;2022-10-31T13:22:49;48.50;;;23.87;;
4961;SDS011;2496;52.468;13.342;2022-10-31T13:25:19;39.70;;;24.40;;
4961;SDS011;2496;52.468;13.342;2022-10-31T13:27:51;40.63;;;25.03;;
4961;SDS011;2496;52.468;13.342;2022-10-31T13:30:22;45.87;;;25.70;;
4961;SDS011;2496;52.468;13.342;2022-10-31T13:32:52;47.77;;;27.30;;
4961;SDS011;2496;52.468;13.342;2022-10-31T13:35:24;42.73;;;26.30;;
4961;SDS011;2496;52.468;13.342;2022-10-31T13:38:02;44.20;;;25.67;;
4961;SDS011;2496;52.468;13.342;2022-10-31T13:40:39;36.13;;;22.70;;
4961;SDS011;2496;52.468;13.342;2022-10-31T13:43:14;39.67;;;25.00;;
4961;SDS011;2496;52.468;13.342;2022-10-31T13:45:49;40.47;;;22.40;;
4961;SDS011;2496;52.468;13.342;2022-10-31T13:48:18;55.83;;;25.73;;
4961;SDS011;2496;52.468;13.342;2022-10-31T13:50:59;42.50;;;24.40;;
4961;SDS011;2496;52.468;13.342;2022-10-31T13:53:43;40.30;;;24.10;;
4961;SDS011;2496;52.468;13.342;2022-10-31T13:56:18;41.97;;;23.53;;
4961;SDS011;2496;52.468;13.342;2022-10-31T13:58:59;48.90;;;24.70;;
4961;SDS011;2496;52.468;13.342;2022-10-31T14:01:29;41.93;;;24.37;;
4961;SDS011;2496;52.468;13.342;2022-10-31T14:04:00;47.77;;;24.63;;
4961;SDS011;2496;52.468;13.342;2022-10-31T14:06:36;36.83;;;25.20;;
4961;SDS011;2496;52.468;13.342;2022-10-31T14:09:20;40.07;;;22.70;;
4961;SDS011;2496;52.468;13.342;2022-10-31T14:11:51;42.73;;;24.00;;
4961;SDS011;2496;52.468;13.342;2022-10-31T14:14:19;41.33;;;27.17;;
4961;SDS011;2496;52.468;13.342;2022-10-31T14:16:52;48.17;;;25.00;;
4961;SDS011;2496;52.468;13.342;2022-10-31T14:19:21;54.90;;;27.17;;
4961;SDS011;2496;52.468;13.342;2022-10-31T14:21:48;55.10;;;28.03;;
4961;SDS011;2496;52.468;13.342;2022-10-31T14:24:30;62.10;;;30.20;;
4961;SDS011;2496;52.468;13.342;2022-10-31T14:27:01;56.47;;;32.47;;
4961;SDS011;2496;52.468;13.342;2022-10-31T14:29:30;52.30;;;31.73;;
4961;SDS011;2496;52.468;13.342;2022-10-31T14:32:03;54.77;;;32.37;;
4961;SDS011;2496;52.468;13.342;2022-10-31T14:34:38;69.77;;;34.57;;
4961;SDS011;2496;52.468;13.342;2022-10-31T14:37:23;54.97;;;33.13;;
4961;SDS011;2496;52.468;13.342;2022-10-31T14:40:06;58.00;;;34.47;;
4961;SDS011;2496;52.468;13.342;2022-10-31T14:42:57;63.43;;;34.20;;
4961;SDS011;2496;52.468;13.342;2022-10-31T14:45:45;72.90;;;34.60;;
4961;SDS011;2496;52.468;13.342;2022-10-31T14:48:24;63.07;;;34.73;;
4961;SDS011;2496;52.468;13.342;2022-10-31T14:51:08;66.30;;;35.50;;
4961;SDS011;2496;52.468;13.342;2022-10-31T14:53:42;63.93;;;34.63;;
4961;SDS011;2496;52.468;13.342;2022-10-31T14:56:16;62.67;;;35.03;;
4961;SDS011;2496;52.468;13.342;2022-10-31T14:58:47;57.23;;;35.93;;
4961;SDS011;2496;52.468;13.342;2022-10-31T15:01:17;86.10;;;38.57;;
4961;SDS011;2496;52.468;13.342;2022-10-31T15:03:48;67.53;;;39.17;;